createdAt,value
2024-03-11T00:02:11.295Z,28.02
2024-03-11T00:07:16.803Z,30.05
2024-03-11T00:12:23.810Z,30.63
2024-03-11T00:17:25.892Z,32.03
2024-03-11T00:22:28.007Z,32.75
2024-03-11T00:27:29.973Z,30.75
2024-03-11T00:32:32.026Z,27.42
2024-03-11T00:37:34.048Z,28.85
2024-03-11T00:42:36.379Z,27.45
2024-03-11T00:47:43.256Z,30.98
2024-03-11T00:52:48.588Z,33.35
2024-03-11T00:57:55.791Z,32.60
2024-03-11T01:02:59.196Z,30.85
2024-03-11T01:08:01.248Z,27.85
2024-03-11T01:13:03.843Z,34.60
2024-03-11T01:18:06.692Z,33.45
2024-03-11T01:23:13.280Z,28.60
2024-03-11T01:28:15.370Z,30.30
2024-03-11T01:33:18.239Z,32.55
2024-03-11T01:38:20.786Z,28.15
2024-03-11T01:43:23.033Z,31.67
2024-03-11T01:48:27.298Z,35.20
2024-03-11T01:53:30.243Z,32.97
2024-03-11T01:58:40.823Z,33.03
2024-03-11T02:03:43.119Z,31.63
2024-03-11T02:08:46.265Z,31.63
2024-03-11T02:13:50.043Z,27.88
2024-03-11T02:18:53.406Z,28.27
2024-03-11T02:23:55.616Z,32.17
2024-03-11T02:28:58.608Z,30.85
2024-03-11T02:34:02.407Z,30.52
2024-03-11T02:39:06.706Z,31.70
2024-03-11T02:44:11.536Z,27.45
2024-03-11T02:49:14.979Z,34.92
2024-03-11T02:54:18.130Z,32.15
2024-03-11T02:59:22.993Z,28.02
2024-03-11T03:04:25.058Z,31.00
2024-03-11T03:09:27.066Z,31.92
2024-03-11T03:14:29.015Z,33.97
2024-03-11T03:19:31.064Z,29.15
2024-03-11T03:24:33.182Z,32.92
2024-03-11T03:29:35.910Z,34.30
2024-03-11T03:34:37.852Z,30.15
2024-03-11T03:39:40.236Z,29.15
2024-03-11T03:44:42.480Z,26.35
2024-03-11T03:49:44.532Z,40.30
2024-03-11T03:54:46.620Z,27.65
2024-03-11T03:59:49.698Z,34.78
2024-03-11T04:04:51.959Z,32.78
2024-03-11T04:09:53.987Z,26.52
2024-03-11T04:14:56.738Z,34.38
2024-03-11T04:19:58.731Z,28.60
2024-03-11T04:25:00.858Z,25.90
2024-03-11T04:30:02.978Z,28.15
2024-03-11T04:35:05.399Z,28.05
2024-03-11T04:40:09.095Z,26.63
2024-03-11T04:45:11.944Z,28.23
2024-03-11T04:50:15.595Z,28.90
2024-03-11T04:55:17.573Z,29.52
2024-03-11T05:00:19.921Z,27.77
2024-03-11T05:05:22.751Z,32.13
2024-03-11T05:10:25.439Z,25.55
2024-03-11T05:15:28.543Z,28.08
2024-03-11T05:20:30.731Z,28.40
2024-03-11T05:25:32.696Z,28.10
2024-03-11T05:30:34.757Z,31.73
2024-03-11T05:35:37.497Z,27.85
2024-03-11T05:40:41.255Z,29.70
2024-03-11T05:45:43.227Z,29.25
2024-03-11T05:50:45.414Z,25.38
2024-03-11T05:55:47.654Z,34.88
2024-03-11T06:00:49.660Z,29.00
2024-03-11T06:05:53.737Z,29.27
2024-03-11T06:10:56.098Z,27.90
2024-03-11T06:15:58.145Z,30.92
2024-03-11T06:21:00.140Z,29.98
2024-03-11T06:26:04.636Z,29.58
2024-03-11T06:31:06.646Z,25.88
2024-03-11T06:36:17.962Z,29.02
2024-03-11T06:41:20.665Z,30.70
2024-03-11T06:46:23.834Z,26.00
2024-03-11T06:51:26.444Z,28.23
2024-03-11T06:56:32.354Z,28.15
2024-03-11T07:01:34.902Z,30.45
2024-03-11T07:06:36.923Z,26.60
2024-03-11T07:11:39.378Z,24.48
2024-03-11T07:16:44.631Z,25.70
2024-03-11T07:21:47.655Z,26.50
2024-03-11T07:26:49.773Z,24.92
2024-03-11T07:31:54.956Z,23.80
2024-03-11T07:36:57.486Z,27.70
2024-03-11T07:42:00.439Z,28.00
2024-03-11T07:47:02.443Z,26.10
2024-03-11T07:52:05.531Z,26.05
2024-03-11T07:57:09.355Z,25.55
2024-03-11T08:02:12.129Z,26.23
2024-03-11T08:07:15.245Z,28.77
2024-03-11T08:12:17.219Z,27.08
2024-03-11T08:17:19.459Z,27.67
2024-03-11T08:22:21.536Z,20.60
2024-03-11T08:27:23.684Z,32.20
2024-03-11T08:32:30.576Z,24.33
2024-03-11T08:37:33.930Z,25.42
2024-03-11T08:42:37.349Z,25.23
2024-03-11T08:47:43.378Z,29.58
2024-03-11T08:52:47.756Z,23.98
2024-03-11T08:57:59.810Z,24.15
2024-03-11T09:03:01.858Z,30.13
2024-03-11T09:08:06.923Z,30.95
2024-03-11T09:13:09.587Z,25.10
2024-03-11T09:18:14.042Z,23.98
2024-03-11T09:23:16.446Z,25.60
2024-03-11T09:28:19.142Z,28.15
2024-03-11T09:33:22.820Z,26.63
2024-03-11T09:38:25.185Z,25.83
2024-03-11T09:43:28.213Z,23.83
2024-03-11T09:48:31.351Z,26.33
2024-03-11T09:53:35.712Z,21.88
2024-03-11T09:58:39.433Z,23.95
2024-03-11T10:03:42.639Z,24.85
2024-03-11T10:08:46.969Z,24.42
2024-03-11T10:13:49.695Z,23.27
2024-03-11T10:19:04.734Z,23.23
2024-03-11T10:24:10.530Z,23.55
2024-03-11T10:29:14.016Z,25.80
2024-03-11T10:34:23.313Z,26.52
2024-03-11T10:39:32.836Z,26.50
2024-03-11T10:44:41.703Z,25.58
2024-03-11T10:49:49.707Z,23.30
2024-03-11T10:55:07.665Z,21.65
2024-03-11T11:00:19.943Z,19.30
2024-03-11T11:05:37.149Z,25.63
2024-03-11T11:10:40.463Z,20.92
2024-03-11T11:15:46.736Z,23.23
2024-03-11T11:20:51.504Z,22.90
2024-03-11T11:25:56.908Z,22.42
2024-03-11T11:31:16.564Z,23.60
2024-03-11T11:36:31.331Z,27.13
2024-03-11T11:41:38.456Z,23.88
2024-03-11T11:46:45.011Z,25.48
2024-03-11T11:51:48.275Z,24.35
2024-03-11T11:56:50.570Z,24.13
2024-03-11T12:01:54.415Z,24.17
2024-03-11T12:06:56.755Z,27.25
2024-03-11T12:11:58.857Z,24.08
2024-03-11T12:17:06.153Z,25.08
2024-03-11T12:22:15.001Z,26.92
2024-03-11T12:27:17.974Z,23.90
2024-03-11T12:32:20.156Z,24.58
2024-03-11T12:37:34.843Z,22.88
2024-03-11T12:42:39.735Z,19.90
2024-03-11T12:47:41.859Z,27.58
2024-03-11T12:52:44.336Z,26.23
2024-03-11T12:57:46.593Z,22.50
2024-03-11T13:02:48.557Z,24.00
2024-03-11T13:07:50.936Z,22.13
2024-03-11T13:12:53.046Z,26.00
2024-03-11T13:18:12.462Z,25.58
2024-03-11T13:23:25.948Z,25.27
2024-03-11T13:28:31.632Z,28.90
2024-03-11T13:33:37.889Z,26.88
2024-03-11T13:38:42.688Z,25.77
2024-03-11T13:43:45.217Z,26.13
2024-03-11T13:48:47.811Z,32.00
2024-03-11T13:53:49.881Z,31.88
2024-03-11T13:58:53.903Z,28.33
2024-03-11T14:03:56.051Z,25.73
2024-03-11T14:08:58.887Z,25.52
2024-03-11T14:14:00.887Z,30.75
2024-03-11T14:19:03.202Z,27.27
2024-03-11T14:24:06.078Z,28.38
2024-03-11T14:29:09.278Z,28.60
2024-03-11T14:34:12.203Z,33.80
2024-03-11T14:39:21.184Z,29.20
2024-03-11T14:44:23.326Z,29.42
2024-03-11T14:49:25.428Z,30.73
2024-03-11T14:54:28.344Z,33.40
2024-03-11T14:59:32.910Z,30.63
2024-03-11T15:04:34.930Z,28.08
2024-03-11T15:09:43.577Z,32.63
2024-03-11T15:14:45.752Z,36.55
2024-03-11T15:19:47.722Z,33.88
2024-03-11T15:24:49.957Z,35.17
2024-03-11T15:29:51.912Z,31.30
2024-03-11T15:34:54.473Z,31.52
2024-03-11T15:39:56.589Z,31.15
2024-03-11T15:44:58.567Z,31.13
2024-03-11T15:50:01.642Z,29.42
2024-03-11T15:55:03.939Z,33.92
2024-03-11T16:00:07.685Z,31.75
2024-03-11T16:05:16.503Z,31.05
2024-03-11T16:10:20.173Z,31.58
2024-03-11T16:15:24.219Z,30.17
2024-03-11T16:20:27.417Z,36.63
2024-03-11T16:25:31.426Z,37.80
2024-03-11T16:30:34.790Z,36.30
2024-03-11T16:35:36.894Z,41.38
2024-03-11T16:40:40.745Z,37.13
2024-03-11T16:45:49.828Z,39.03
2024-03-11T16:50:53.821Z,40.80
2024-03-11T16:55:57.608Z,41.08
2024-03-11T17:01:02.003Z,41.33
2024-03-11T17:06:04.284Z,42.40
2024-03-11T17:11:07.987Z,43.33
2024-03-11T17:16:10.424Z,39.45
2024-03-11T17:21:14.532Z,43.03
2024-03-11T17:26:16.548Z,46.83
2024-03-11T17:31:21.541Z,44.35
2024-03-11T17:41:26.846Z,45.97
2024-03-11T17:46:32.326Z,45.00
2024-03-11T17:51:34.521Z,42.78
2024-03-11T17:56:38.355Z,36.53
2024-03-11T18:01:40.450Z,39.05
2024-03-11T18:06:42.526Z,39.65
2024-03-11T18:11:47.963Z,38.50
2024-03-11T18:16:51.849Z,37.50
2024-03-11T18:21:55.070Z,49.38
2024-03-11T18:26:57.360Z,45.40
2024-03-11T18:31:59.422Z,36.70
2024-03-11T18:37:01.711Z,27.83
2024-03-11T18:42:05.249Z,23.15
2024-03-11T18:47:07.545Z,17.15
2024-03-11T18:52:11.026Z,12.80
2024-03-11T18:57:13.304Z,13.23
2024-03-11T19:02:21.466Z,15.40
2024-03-11T19:07:23.569Z,14.32
2024-03-11T19:12:25.566Z,14.65
2024-03-11T19:17:28.172Z,13.65
2024-03-11T19:22:30.142Z,15.13
2024-03-11T19:27:32.298Z,10.32
2024-03-11T19:32:34.680Z,13.68
2024-03-11T19:38:03.960Z,14.07
2024-03-11T19:43:29.453Z,11.68
2024-03-11T19:49:17.610Z,10.27
2024-03-11T19:54:28.879Z,9.35
2024-03-11T20:05:28.215Z,8.27
2024-03-11T20:11:01.803Z,8.40
2024-03-11T20:16:45.580Z,6.72
2024-03-11T20:22:25.272Z,8.63
2024-03-11T20:27:41.945Z,5.47
2024-03-11T20:32:56.175Z,6.22
2024-03-11T20:38:03.074Z,6.53
2024-03-11T20:43:05.316Z,6.95
2024-03-11T20:48:08.016Z,7.88
2024-03-11T20:53:11.877Z,6.82
2024-03-11T20:58:14.431Z,6.20
2024-03-11T21:03:16.713Z,5.95
2024-03-11T21:08:19.228Z,8.70
2024-03-11T21:13:21.493Z,8.02
2024-03-11T21:18:23.907Z,8.60
2024-03-11T21:23:36.694Z,7.47
2024-03-11T21:28:38.977Z,8.15
2024-03-11T21:33:41.194Z,7.05
2024-03-11T21:38:43.314Z,8.98
2024-03-11T21:43:49.397Z,10.10
2024-03-11T21:48:51.576Z,9.27
2024-03-11T21:53:54.236Z,9.88
2024-03-11T21:58:56.263Z,11.73
2024-03-11T22:04:00.004Z,19.13
2024-03-11T22:09:02.272Z,19.00
2024-03-11T22:14:04.271Z,17.42
2024-03-11T22:19:07.533Z,14.05
2024-03-11T22:24:12.293Z,13.20
2024-03-11T22:29:16.255Z,13.35
2024-03-11T22:34:18.299Z,13.02
2024-03-11T22:39:22.583Z,16.02
2024-03-11T22:44:24.728Z,14.27
2024-03-11T22:49:26.883Z,14.43
2024-03-11T22:54:30.367Z,12.63
2024-03-11T22:59:32.399Z,14.95
2024-03-11T23:04:34.721Z,15.05
2024-03-11T23:09:37.189Z,9.85
2024-03-11T23:14:41.034Z,9.93
2024-03-11T23:19:45.470Z,11.18
2024-03-11T23:24:47.847Z,10.40
2024-03-11T23:29:49.878Z,8.40
2024-03-11T23:34:52.517Z,8.52
2024-03-11T23:39:54.837Z,10.23
2024-03-11T23:44:56.780Z,7.95
2024-03-11T23:49:58.768Z,10.48
2024-03-11T23:55:00.877Z,11.27
